WJA1 EGLL-CYYC
Flight info
| Callsign | WJA1 |
|---|---|
| Flight time | N/A |
| Altitude | 36000 |
| Route | ULTIB T420 TNT UN57 POL/N0431F240 N601 GRICE/N0488F360 DCT NALAN/M085F360 DCT 6630N/M085F380 DCT 6740N DCT 68N054W DCT CANEL/N0486F380 DCT 66N075W DCT YZS/N0496F400 J540 YEK DCT PETMA DCT UDPAG DCT DUDNI BIRKO6 |
| Aircraft | B789/H-SDE1E2E3FGHIJ2J3J4J5M1RWXY/LB1D1 |
Departure
| Time | N/A |
|---|---|
| Airport | London Heathrow Airport (EGLL) |
Arrival
| Time | 2026-05-04 00:53 |
|---|---|
| Airport | Calgary International Airport (CYYC) |
| Time | Latitude | Longitude | Altitude | Speed | Heading |
|---|---|---|---|---|---|
| 2026-05-03 20:15 | 67.39109 | -43.68874 | 36325 ft | 427 kts | 283° |
| 2026-05-03 20:15 | 67.40490 | -43.83809 | 36326 ft | 427 kts | 283° |
| 2026-05-03 20:16 | 67.41865 | -43.98858 | 36327 ft | 427 kts | 283° |
| 2026-05-03 20:16 | 67.42997 | -44.11363 | 36329 ft | 427 kts | 283° |
| 2026-05-03 20:17 | 67.44347 | -44.26448 | 36334 ft | 427 kts | 283° |
| 2026-05-03 20:17 | 67.45675 | -44.41468 | 36887 ft | 421 kts | 283° |
| 2026-05-03 20:17 | 67.46324 | -44.48853 | 37004 ft | 425 kts | 283° |
| 2026-05-03 20:18 | 67.46980 | -44.56386 | 37206 ft | 427 kts | 282° |
| 2026-05-03 20:18 | 67.47637 | -44.63962 | 37404 ft | 429 kts | 282° |
| 2026-05-03 20:18 | 67.48293 | -44.71577 | 37587 ft | 431 kts | 282° |
| 2026-05-03 20:18 | 67.48949 | -44.79232 | 37803 ft | 433 kts | 282° |
| 2026-05-03 20:19 | 67.49605 | -44.86936 | 37978 ft | 435 kts | 282° |
| 2026-05-03 20:19 | 67.50253 | -44.94601 | 38122 ft | 438 kts | 282° |
| 2026-05-03 20:19 | 67.50908 | -45.02388 | 38273 ft | 440 kts | 282° |
| 2026-05-03 20:20 | 67.52223 | -45.18177 | 38319 ft | 447 kts | 282° |
| 2026-05-03 20:20 | 67.53523 | -45.33991 | 38322 ft | 443 kts | 282° |
| 2026-05-03 20:21 | 67.54802 | -45.49741 | 38316 ft | 442 kts | 282° |
| 2026-05-03 20:21 | 67.56062 | -45.65470 | 38321 ft | 442 kts | 282° |
| 2026-05-03 20:22 | 67.57310 | -45.81253 | 38323 ft | 441 kts | 282° |
| 2026-05-03 20:22 | 67.58532 | -45.96928 | 38317 ft | 441 kts | 282° |
| 2026-05-03 20:23 | 67.59745 | -46.12688 | 38322 ft | 441 kts | 281° |
| 2026-05-03 20:23 | 67.60941 | -46.28450 | 38324 ft | 441 kts | 281° |
| 2026-05-03 20:24 | 67.62124 | -46.44253 | 38327 ft | 441 kts | 281° |
| 2026-05-03 20:24 | 67.63284 | -46.59959 | 38324 ft | 441 kts | 281° |
| 2026-05-03 20:25 | 67.64437 | -46.75804 | 38321 ft | 441 kts | 281° |
| 2026-05-03 20:25 | 67.65572 | -46.91629 | 38323 ft | 441 kts | 281° |
| 2026-05-03 20:26 | 67.66686 | -47.07378 | 38322 ft | 441 kts | 281° |
| 2026-05-03 20:26 | 67.67794 | -47.23286 | 38319 ft | 441 kts | 281° |
| 2026-05-03 20:27 | 67.68884 | -47.39172 | 38319 ft | 441 kts | 280° |
| 2026-05-03 20:27 | 67.69955 | -47.55011 | 38325 ft | 442 kts | 280° |
| 2026-05-03 20:28 | 67.71018 | -47.70988 | 38327 ft | 442 kts | 280° |
| 2026-05-03 20:28 | 67.72064 | -47.86950 | 38331 ft | 442 kts | 280° |
| 2026-05-03 20:29 | 67.73095 | -48.02948 | 38344 ft | 442 kts | 280° |
| 2026-05-03 20:29 | 67.74111 | -48.18956 | 38329 ft | 442 kts | 279° |
| 2026-05-03 20:30 | 67.75109 | -48.34960 | 38341 ft | 442 kts | 279° |
| 2026-05-03 20:30 | 67.76092 | -48.50975 | 38336 ft | 442 kts | 279° |
| 2026-05-03 20:31 | 67.77054 | -48.66907 | 38335 ft | 442 kts | 279° |
| 2026-05-03 20:31 | 67.78008 | -48.82981 | 38341 ft | 442 kts | 279° |
| 2026-05-03 20:32 | 67.78944 | -48.99046 | 38338 ft | 442 kts | 279° |
| 2026-05-03 20:32 | 67.79865 | -49.15129 | 38343 ft | 442 kts | 279° |
| 2026-05-03 20:33 | 67.80769 | -49.31204 | 38340 ft | 442 kts | 279° |
| 2026-05-03 20:33 | 67.81658 | -49.47309 | 38349 ft | 442 kts | 278° |
| 2026-05-03 20:34 | 67.82499 | -49.62816 | 38344 ft | 442 kts | 278° |
| 2026-05-03 20:34 | 67.83360 | -49.78990 | 38347 ft | 442 kts | 278° |
| 2026-05-03 20:35 | 67.84202 | -49.95126 | 38339 ft | 442 kts | 278° |
| 2026-05-03 20:35 | 67.85026 | -50.11245 | 38339 ft | 441 kts | 278° |
| 2026-05-03 20:36 | 67.85833 | -50.27335 | 38329 ft | 441 kts | 278° |
| 2026-05-03 20:36 | 67.86626 | -50.43485 | 38338 ft | 441 kts | 278° |
| 2026-05-03 20:37 | 67.87403 | -50.59626 | 38342 ft | 441 kts | 277° |
| 2026-05-03 20:37 | 67.88164 | -50.75772 | 38337 ft | 440 kts | 277° |
| 2026-05-03 20:38 | 67.88903 | -50.91800 | 38356 ft | 441 kts | 277° |
| 2026-05-03 20:38 | 67.89632 | -51.07996 | 38354 ft | 441 kts | 277° |
| 2026-05-03 20:39 | 67.90349 | -51.24246 | 38355 ft | 442 kts | 277° |
| 2026-05-03 20:39 | 67.91044 | -51.40403 | 38355 ft | 442 kts | 277° |
| 2026-05-03 20:40 | 67.91729 | -51.56701 | 38360 ft | 442 kts | 277° |
| 2026-05-03 20:40 | 67.92393 | -51.72886 | 38361 ft | 442 kts | 276° |
| 2026-05-03 20:41 | 67.93046 | -51.89203 | 38364 ft | 443 kts | 276° |
| 2026-05-03 20:41 | 67.93680 | -52.05435 | 38369 ft | 444 kts | 276° |
| 2026-05-03 20:42 | 67.94301 | -52.21796 | 38374 ft | 444 kts | 276° |
| 2026-05-03 20:42 | 67.94906 | -52.38150 | 38376 ft | 443 kts | 276° |
| 2026-05-03 20:43 | 67.95494 | -52.54503 | 38379 ft | 445 kts | 276° |
| 2026-05-03 20:43 | 67.96076 | -52.71131 | 38392 ft | 457 kts | 276° |
| 2026-05-03 20:44 | 67.96652 | -52.88141 | 38391 ft | 462 kts | 275° |
| 2026-05-03 20:44 | 67.97210 | -53.05103 | 38396 ft | 463 kts | 275° |
| 2026-05-03 20:45 | 67.97755 | -53.22241 | 38400 ft | 464 kts | 275° |
| 2026-05-03 20:45 | 67.98281 | -53.39346 | 38396 ft | 463 kts | 275° |
| 2026-05-03 20:46 | 67.98790 | -53.56476 | 38406 ft | 463 kts | 275° |
| 2026-05-03 20:46 | 67.99282 | -53.73626 | 38409 ft | 463 kts | 275° |
| 2026-05-03 20:47 | 67.99756 | -53.90804 | 38411 ft | 464 kts | 274° |
| 2026-05-03 20:47 | 68.00126 | -54.07883 | 38403 ft | 464 kts | 273° |
| 2026-05-03 20:48 | 68.00446 | -54.25071 | 38409 ft | 464 kts | 273° |
| 2026-05-03 20:48 | 68.00711 | -54.42283 | 38410 ft | 464 kts | 272° |
| 2026-05-03 20:49 | 68.00975 | -54.59506 | 38416 ft | 465 kts | 272° |
| 2026-05-03 20:49 | 68.01214 | -54.76744 | 38415 ft | 465 kts | 272° |
| 2026-05-03 20:50 | 68.01438 | -54.93996 | 38420 ft | 465 kts | 272° |
| 2026-05-03 20:50 | 68.01647 | -55.11546 | 38428 ft | 466 kts | 272° |
| 2026-05-03 20:51 | 68.01830 | -55.28503 | 38429 ft | 466 kts | 272° |
| 2026-05-03 20:51 | 68.02000 | -55.45799 | 38435 ft | 466 kts | 272° |
| 2026-05-03 20:52 | 68.02152 | -55.63119 | 38438 ft | 467 kts | 271° |
| 2026-05-03 20:52 | 68.02286 | -55.80489 | 38446 ft | 467 kts | 271° |
| 2026-05-03 20:53 | 68.02400 | -55.97691 | 38448 ft | 468 kts | 271° |
| 2026-05-03 20:53 | 68.02497 | -56.15081 | 38448 ft | 468 kts | 271° |
| 2026-05-03 20:54 | 68.02576 | -56.32422 | 38455 ft | 467 kts | 271° |
| 2026-05-03 20:54 | 68.02660 | -56.58519 | 38457 ft | 468 kts | 271° |
| 2026-05-03 20:55 | 68.02694 | -56.75901 | 38459 ft | 468 kts | 270° |
| 2026-05-03 20:55 | 68.02709 | -56.93190 | 38463 ft | 468 kts | 270° |
| 2026-05-03 20:56 | 68.02706 | -57.10593 | 38470 ft | 468 kts | 270° |
| 2026-05-03 20:56 | 68.02684 | -57.27972 | 38469 ft | 468 kts | 270° |
| 2026-05-03 20:57 | 68.02645 | -57.45326 | 38478 ft | 469 kts | 270° |
| 2026-05-03 20:57 | 68.02586 | -57.62771 | 38482 ft | 470 kts | 270° |
| 2026-05-03 20:58 | 68.02509 | -57.80249 | 38484 ft | 470 kts | 269° |
| 2026-05-03 20:58 | 68.02414 | -57.97735 | 38489 ft | 471 kts | 269° |
| 2026-05-03 20:59 | 68.02300 | -58.15263 | 38496 ft | 471 kts | 269° |
| 2026-05-03 20:59 | 68.02168 | -58.32659 | 38498 ft | 471 kts | 269° |
| 2026-05-03 21:00 | 68.02069 | -58.44364 | 38500 ft | 472 kts | 269° |
| 2026-05-03 21:00 | 68.01877 | -58.64730 | 38504 ft | 472 kts | 269° |
| 2026-05-03 21:01 | 68.01691 | -58.82235 | 38503 ft | 471 kts | 269° |
| 2026-05-03 21:01 | 68.01488 | -58.99709 | 38510 ft | 471 kts | 268° |
| 2026-05-03 21:02 | 68.01265 | -59.17254 | 38522 ft | 472 kts | 268° |
| 2026-05-03 21:02 | 68.01025 | -59.34687 | 38524 ft | 472 kts | 268° |
| 2026-05-03 21:03 | 68.00765 | -59.52227 | 38522 ft | 472 kts | 268° |
| 2026-05-03 21:03 | 68.00486 | -59.69792 | 38524 ft | 472 kts | 268° |
| 2026-05-03 21:04 | 68.00191 | -59.87185 | 38520 ft | 472 kts | 268° |
| 2026-05-03 21:04 | 67.99875 | -60.04696 | 38521 ft | 473 kts | 267° |
| 2026-05-03 21:05 | 67.99540 | -60.22231 | 38522 ft | 473 kts | 267° |
| 2026-05-03 21:05 | 67.99186 | -60.39785 | 38531 ft | 474 kts | 267° |
| 2026-05-03 21:06 | 67.98816 | -60.57245 | 38536 ft | 475 kts | 267° |
| 2026-05-03 21:06 | 67.98395 | -60.74854 | 38547 ft | 475 kts | 262° |
| 2026-05-03 21:07 | 67.97032 | -60.92101 | 38553 ft | 476 kts | 258° |
| 2026-05-03 21:07 | 67.95505 | -61.09306 | 38556 ft | 477 kts | 258° |
| 2026-05-03 21:08 | 67.93992 | -61.26361 | 38560 ft | 477 kts | 257° |
| 2026-05-03 21:08 | 67.92439 | -61.43529 | 38563 ft | 477 kts | 257° |
| 2026-05-03 21:09 | 67.90868 | -61.60715 | 38565 ft | 477 kts | 257° |
| 2026-05-03 21:09 | 67.89284 | -61.77818 | 38565 ft | 478 kts | 257° |
| 2026-05-03 21:10 | 67.87675 | -61.94968 | 38565 ft | 478 kts | 257° |
| 2026-05-03 21:10 | 67.86051 | -62.12067 | 38569 ft | 479 kts | 257° |
| 2026-05-03 21:11 | 67.84400 | -62.29236 | 38568 ft | 479 kts | 256° |
| 2026-05-03 21:11 | 67.82749 | -62.46206 | 38565 ft | 479 kts | 256° |
| 2026-05-03 21:12 | 67.81060 | -62.63348 | 38568 ft | 480 kts | 256° |
| 2026-05-03 21:12 | 67.79354 | -62.80466 | 38571 ft | 481 kts | 256° |
| 2026-05-03 21:13 | 67.77628 | -62.97566 | 38572 ft | 480 kts | 256° |
| 2026-05-03 21:13 | 67.75890 | -63.14597 | 38574 ft | 481 kts | 256° |
| 2026-05-03 21:14 | 67.74139 | -63.31554 | 38574 ft | 481 kts | 255° |
| 2026-05-03 21:14 | 67.72356 | -63.48616 | 38573 ft | 482 kts | 255° |
| 2026-05-03 21:15 | 67.70557 | -63.65647 | 38574 ft | 482 kts | 255° |
| 2026-05-03 21:15 | 67.69728 | -63.73424 | 38573 ft | 482 kts | 255° |
| 2026-05-03 21:16 | 67.67911 | -63.90340 | 38567 ft | 482 kts | 255° |
| 2026-05-03 21:16 | 67.66061 | -64.07371 | 38568 ft | 483 kts | 255° |
| 2026-05-03 21:17 | 67.64515 | -64.21452 | 38569 ft | 483 kts | 254° |
| 2026-05-03 21:17 | 67.62326 | -64.41180 | 38559 ft | 483 kts | 254° |
| 2026-05-03 21:18 | 67.60426 | -64.58102 | 38557 ft | 484 kts | 254° |
| 2026-05-03 21:18 | 67.58504 | -64.75032 | 38551 ft | 484 kts | 254° |
| 2026-05-03 21:19 | 67.56566 | -64.91929 | 38544 ft | 484 kts | 253° |
| 2026-05-03 21:19 | 67.54617 | -65.08738 | 38538 ft | 484 kts | 253° |
| 2026-05-03 21:20 | 67.52636 | -65.25639 | 38535 ft | 485 kts | 253° |
| 2026-05-03 21:20 | 67.50645 | -65.42453 | 38523 ft | 485 kts | 253° |
| 2026-05-03 21:21 | 67.48641 | -65.59195 | 38508 ft | 486 kts | 253° |
| 2026-05-03 21:21 | 67.46605 | -65.76037 | 38481 ft | 486 kts | 253° |
| 2026-05-03 21:22 | 67.44549 | -65.92865 | 38461 ft | 486 kts | 252° |
| 2026-05-03 21:22 | 67.42576 | -66.08857 | 38435 ft | 486 kts | 252° |
| 2026-05-03 21:23 | 67.40503 | -66.25495 | 38403 ft | 486 kts | 252° |
| 2026-05-03 21:23 | 67.38402 | -66.42193 | 38378 ft | 485 kts | 252° |
| 2026-05-03 21:24 | 67.36281 | -66.58877 | 38350 ft | 486 kts | 252° |
| 2026-05-03 21:24 | 67.34148 | -66.75500 | 38323 ft | 486 kts | 252° |
| 2026-05-03 21:25 | 67.32003 | -66.92045 | 38306 ft | 486 kts | 251° |
| 2026-05-03 21:25 | 67.29827 | -67.08665 | 38288 ft | 487 kts | 251° |
| 2026-05-03 21:26 | 67.27634 | -67.25264 | 38280 ft | 487 kts | 251° |
| 2026-05-03 21:26 | 67.25422 | -67.41838 | 38273 ft | 488 kts | 251° |
| 2026-05-03 21:27 | 67.23191 | -67.58400 | 38264 ft | 488 kts | 251° |
| 2026-05-03 21:27 | 67.20958 | -67.74820 | 38259 ft | 487 kts | 251° |
| 2026-05-03 21:28 | 67.18689 | -67.91348 | 38256 ft | 488 kts | 250° |
| 2026-05-03 21:28 | 67.16404 | -68.07839 | 38260 ft | 489 kts | 250° |
| 2026-05-03 21:29 | 67.14116 | -68.24198 | 38253 ft | 488 kts | 250° |
| 2026-05-03 21:29 | 67.11797 | -68.40630 | 38254 ft | 489 kts | 250° |
| 2026-05-03 21:30 | 67.09458 | -68.57045 | 38262 ft | 489 kts | 250° |
| 2026-05-03 21:30 | 67.07109 | -68.73390 | 38265 ft | 490 kts | 249° |
| 2026-05-03 21:31 | 67.04731 | -68.89780 | 38264 ft | 490 kts | 249° |
| 2026-05-03 21:31 | 67.02339 | -69.06120 | 38260 ft | 490 kts | 249° |
| 2026-05-03 21:32 | 66.99928 | -69.22447 | 38268 ft | 490 kts | 249° |
| 2026-05-03 21:32 | 66.97500 | -69.38745 | 38265 ft | 491 kts | 249° |
| 2026-05-03 21:33 | 66.95054 | -69.55017 | 38268 ft | 490 kts | 249° |
| 2026-05-03 21:33 | 66.92588 | -69.71278 | 38268 ft | 490 kts | 248° |
| 2026-05-03 21:34 | 66.90122 | -69.87395 | 38267 ft | 491 kts | 248° |
| 2026-05-03 21:34 | 66.87622 | -70.03598 | 38262 ft | 492 kts | 248° |
| 2026-05-03 21:35 | 66.85100 | -70.19803 | 38264 ft | 492 kts | 248° |
| 2026-05-03 21:35 | 66.82561 | -70.35972 | 38266 ft | 493 kts | 248° |
| 2026-05-03 21:36 | 66.80003 | -70.52129 | 38260 ft | 493 kts | 248° |
| 2026-05-03 21:36 | 66.77442 | -70.68162 | 38265 ft | 494 kts | 247° |
| 2026-05-03 21:37 | 66.74847 | -70.84276 | 38263 ft | 494 kts | 247° |
| 2026-05-03 21:37 | 66.72225 | -71.00421 | 38258 ft | 494 kts | 247° |
| 2026-05-03 21:38 | 66.69608 | -71.16399 | 38250 ft | 495 kts | 247° |
| 2026-05-03 21:38 | 66.66955 | -71.32465 | 38253 ft | 495 kts | 246° |
| 2026-05-03 21:39 | 66.64289 | -71.48481 | 38247 ft | 494 kts | 246° |
| 2026-05-03 21:39 | 66.61630 | -71.64319 | 38248 ft | 493 kts | 246° |
| 2026-05-03 21:40 | 66.58939 | -71.80213 | 38240 ft | 493 kts | 246° |
| 2026-05-03 21:40 | 66.56231 | -71.96089 | 38230 ft | 492 kts | 246° |
| 2026-05-03 21:41 | 66.53537 | -72.11745 | 38231 ft | 491 kts | 245° |
| 2026-05-03 21:41 | 66.50809 | -72.27476 | 38219 ft | 491 kts | 245° |
| 2026-05-03 21:42 | 66.48070 | -72.43150 | 38221 ft | 491 kts | 245° |
| 2026-05-03 21:42 | 66.45322 | -72.58753 | 38218 ft | 491 kts | 245° |
| 2026-05-03 21:43 | 66.42549 | -72.74368 | 38210 ft | 491 kts | 244° |
| 2026-05-03 21:43 | 66.39760 | -72.89954 | 38203 ft | 491 kts | 244° |
| 2026-05-03 21:44 | 66.37430 | -73.02885 | 38201 ft | 491 kts | 244° |
| 2026-05-03 21:44 | 66.34625 | -73.18332 | 38190 ft | 491 kts | 244° |
| 2026-05-03 21:45 | 66.31790 | -73.33833 | 38186 ft | 492 kts | 244° |
| 2026-05-03 21:45 | 66.28937 | -73.49310 | 38179 ft | 493 kts | 244° |
| 2026-05-03 21:46 | 66.26066 | -73.64775 | 38172 ft | 494 kts | 243° |
| 2026-05-03 21:46 | 66.23178 | -73.80198 | 38159 ft | 495 kts | 243° |
| 2026-05-03 21:47 | 66.20259 | -73.95688 | 38158 ft | 495 kts | 243° |
| 2026-05-03 21:47 | 66.17333 | -74.11069 | 38151 ft | 497 kts | 243° |
| 2026-05-03 21:48 | 66.14376 | -74.26527 | 38147 ft | 497 kts | 243° |
| 2026-05-03 21:48 | 66.11410 | -74.41901 | 38144 ft | 498 kts | 243° |
| 2026-05-03 21:49 | 66.08404 | -74.57369 | 38136 ft | 498 kts | 242° |
| 2026-05-03 21:49 | 66.05403 | -74.72693 | 38126 ft | 499 kts | 242° |
| 2026-05-03 21:50 | 66.02363 | -74.88101 | 38119 ft | 500 kts | 242° |
| 2026-05-03 21:50 | 65.99374 | -75.03504 | 38120 ft | 501 kts | 245° |
| 2026-05-03 21:51 | 65.96506 | -75.19131 | 38110 ft | 502 kts | 243° |
| 2026-05-03 21:51 | 65.93634 | -75.34739 | 38107 ft | 503 kts | 244° |
| 2026-05-03 21:52 | 65.90753 | -75.50281 | 38102 ft | 503 kts | 243° |
| 2026-05-03 21:52 | 65.87832 | -75.65883 | 38096 ft | 503 kts | 243° |
| 2026-05-03 21:53 | 65.84916 | -75.81378 | 38094 ft | 503 kts | 243° |
| 2026-05-03 21:53 | 65.81963 | -75.96914 | 38088 ft | 503 kts | 243° |
| 2026-05-03 21:54 | 65.79015 | -76.12333 | 38081 ft | 504 kts | 243° |
| 2026-05-03 21:54 | 65.76030 | -76.27809 | 38067 ft | 504 kts | 243° |
| 2026-05-03 21:55 | 65.73040 | -76.43210 | 38060 ft | 504 kts | 242° |
| 2026-05-03 21:55 | 65.70020 | -76.58635 | 38053 ft | 505 kts | 242° |
| 2026-05-03 21:56 | 65.66986 | -76.74027 | 38056 ft | 506 kts | 242° |
| 2026-05-03 21:56 | 65.63926 | -76.89429 | 38064 ft | 507 kts | 242° |
| 2026-05-03 21:57 | 65.60869 | -77.04705 | 38058 ft | 507 kts | 242° |
| 2026-05-03 21:57 | 65.57776 | -77.20055 | 38064 ft | 507 kts | 242° |
| 2026-05-03 21:58 | 65.54667 | -77.35355 | 38060 ft | 508 kts | 241° |
| 2026-05-03 21:58 | 65.51537 | -77.50661 | 38054 ft | 508 kts | 241° |
| 2026-05-03 21:59 | 65.48393 | -77.65916 | 38048 ft | 508 kts | 241° |
| 2026-05-03 21:59 | 65.45232 | -77.81138 | 38047 ft | 508 kts | 241° |
| 2026-05-03 22:00 | 65.42076 | -77.96242 | 38043 ft | 508 kts | 241° |
| 2026-05-03 22:00 | 65.38880 | -78.11410 | 38038 ft | 509 kts | 240° |
| 2026-05-03 22:01 | 65.35668 | -78.26557 | 38035 ft | 508 kts | 240° |
| 2026-05-03 22:01 | 65.32435 | -78.41692 | 38030 ft | 512 kts | 240° |
| 2026-05-03 22:02 | 65.29188 | -78.56782 | 38025 ft | 511 kts | 240° |
| 2026-05-03 22:02 | 65.25911 | -78.71902 | 38016 ft | 511 kts | 240° |
| 2026-05-03 22:03 | 65.22627 | -78.86947 | 38016 ft | 511 kts | 240° |
| 2026-05-03 22:03 | 65.19351 | -79.01860 | 38012 ft | 511 kts | 240° |
| 2026-05-03 22:04 | 65.16034 | -79.16845 | 38012 ft | 511 kts | 240° |
| 2026-05-03 22:04 | 65.12698 | -79.31818 | 38011 ft | 512 kts | 239° |
| 2026-05-03 22:05 | 65.09369 | -79.46647 | 38003 ft | 512 kts | 239° |
| 2026-05-03 22:05 | 65.06006 | -79.61529 | 37996 ft | 512 kts | 239° |
| 2026-05-03 22:06 | 65.02621 | -79.76406 | 37997 ft | 512 kts | 239° |
| 2026-05-03 22:06 | 64.99222 | -79.91236 | 37985 ft | 512 kts | 239° |
| 2026-05-03 22:07 | 64.95810 | -80.06024 | 37985 ft | 512 kts | 239° |
| 2026-05-03 22:07 | 64.92407 | -80.20682 | 37989 ft | 512 kts | 238° |
| 2026-05-03 22:08 | 64.88953 | -80.35446 | 37987 ft | 513 kts | 238° |
| 2026-05-03 22:08 | 64.85503 | -80.50107 | 37982 ft | 513 kts | 238° |
| 2026-05-03 22:09 | 64.82025 | -80.64768 | 37982 ft | 512 kts | 238° |
| 2026-05-03 22:10 | 64.76802 | -80.86630 | 37976 ft | 512 kts | 238° |
| 2026-05-03 22:10 | 64.73314 | -81.01092 | 37973 ft | 512 kts | 238° |
| 2026-05-03 22:11 | 64.69798 | -81.15592 | 37969 ft | 513 kts | 238° |
| 2026-05-03 22:11 | 64.66261 | -81.30069 | 37974 ft | 513 kts | 238° |
| 2026-05-03 22:12 | 64.62707 | -81.44526 | 37974 ft | 513 kts | 238° |
| 2026-05-03 22:12 | 64.59165 | -81.58835 | 37977 ft | 513 kts | 238° |
| 2026-05-03 22:13 | 64.55583 | -81.73219 | 37983 ft | 513 kts | 237° |
| 2026-05-03 22:13 | 64.51989 | -81.87552 | 37981 ft | 513 kts | 237° |
| 2026-05-03 22:14 | 64.48375 | -82.01872 | 37980 ft | 513 kts | 237° |
| 2026-05-03 22:14 | 64.44758 | -82.16113 | 37967 ft | 513 kts | 237° |
| 2026-05-03 22:15 | 64.41113 | -82.30367 | 37971 ft | 514 kts | 236° |
| 2026-05-03 22:15 | 64.37486 | -82.44468 | 37959 ft | 513 kts | 236° |
| 2026-05-03 22:16 | 64.33814 | -82.58642 | 37949 ft | 514 kts | 236° |
| 2026-05-03 22:16 | 64.30136 | -82.72771 | 37938 ft | 514 kts | 236° |
| 2026-05-03 22:17 | 64.26439 | -82.86856 | 37932 ft | 514 kts | 236° |
| 2026-05-03 22:17 | 64.22731 | -83.00915 | 37919 ft | 513 kts | 236° |
| 2026-05-03 22:18 | 64.19006 | -83.14927 | 37919 ft | 514 kts | 236° |
| 2026-05-03 22:18 | 64.15301 | -83.28807 | 37906 ft | 514 kts | 236° |
| 2026-05-03 22:19 | 64.12006 | -83.43391 | 37899 ft | 517 kts | 240° |
| 2026-05-03 22:19 | 64.08748 | -83.58026 | 37903 ft | 516 kts | 240° |
| 2026-05-03 22:20 | 64.05477 | -83.72666 | 37897 ft | 517 kts | 240° |
| 2026-05-03 22:20 | 64.02189 | -83.87269 | 37888 ft | 517 kts | 240° |
| 2026-05-03 22:21 | 63.98881 | -84.01862 | 37885 ft | 518 kts | 240° |
| 2026-05-03 22:21 | 63.95559 | -84.16406 | 37871 ft | 517 kts | 239° |
| 2026-05-03 22:22 | 63.92229 | -84.30907 | 37873 ft | 517 kts | 239° |
| 2026-05-03 22:22 | 63.88885 | -84.45358 | 37869 ft | 517 kts | 239° |
| 2026-05-03 22:23 | 63.85552 | -84.59669 | 37865 ft | 516 kts | 239° |
| 2026-05-03 22:23 | 63.82182 | -84.74044 | 37865 ft | 516 kts | 239° |
| 2026-05-03 22:24 | 63.78801 | -84.88373 | 37857 ft | 516 kts | 239° |
| 2026-05-03 22:24 | 63.75401 | -85.02685 | 37853 ft | 516 kts | 239° |
| 2026-05-03 22:25 | 63.71996 | -85.16929 | 37849 ft | 516 kts | 239° |
| 2026-05-03 22:25 | 63.68564 | -85.31185 | 37843 ft | 516 kts | 239° |
| 2026-05-03 22:26 | 63.65126 | -85.45384 | 37835 ft | 517 kts | 239° |
| 2026-05-03 22:26 | 63.61685 | -85.59492 | 37827 ft | 516 kts | 238° |
| 2026-05-03 22:27 | 63.58341 | -85.73124 | 37836 ft | 517 kts | 238° |
| 2026-05-03 22:27 | 63.54851 | -85.87253 | 37836 ft | 516 kts | 238° |
| 2026-05-03 22:28 | 63.51375 | -86.01244 | 37833 ft | 516 kts | 238° |
| 2026-05-03 22:28 | 63.47859 | -86.15298 | 37831 ft | 516 kts | 238° |
| 2026-05-03 22:29 | 63.44354 | -86.29230 | 37830 ft | 516 kts | 238° |
| 2026-05-03 22:29 | 63.40806 | -86.43236 | 37833 ft | 516 kts | 238° |
| 2026-05-03 22:30 | 63.37277 | -86.57084 | 37827 ft | 516 kts | 238° |
| 2026-05-03 22:30 | 63.33716 | -86.70967 | 37824 ft | 515 kts | 238° |
| 2026-05-03 22:31 | 63.30144 | -86.84809 | 37815 ft | 515 kts | 238° |
| 2026-05-03 22:31 | 63.27160 | -86.96305 | 37803 ft | 515 kts | 238° |
| 2026-05-03 22:32 | 63.23565 | -87.10073 | 37806 ft | 515 kts | 238° |
| 2026-05-03 22:32 | 63.19978 | -87.23735 | 37815 ft | 515 kts | 237° |
| 2026-05-03 22:33 | 63.16351 | -87.37455 | 37800 ft | 516 kts | 237° |
| 2026-05-03 22:33 | 63.12711 | -87.51145 | 37794 ft | 515 kts | 237° |
| 2026-05-03 22:34 | 63.09062 | -87.64787 | 37796 ft | 515 kts | 237° |
| 2026-05-03 22:34 | 63.05426 | -87.78292 | 37791 ft | 515 kts | 237° |
| 2026-05-03 22:35 | 63.01745 | -87.91885 | 37794 ft | 516 kts | 237° |
| 2026-05-03 22:35 | 62.98054 | -88.05432 | 37793 ft | 516 kts | 237° |
| 2026-05-03 22:36 | 62.94350 | -88.18953 | 37792 ft | 515 kts | 236° |
| 2026-05-03 22:36 | 62.90662 | -88.32323 | 37791 ft | 515 kts | 236° |
| 2026-05-03 22:37 | 62.86940 | -88.45743 | 37789 ft | 515 kts | 236° |
| 2026-05-03 22:37 | 62.83193 | -88.59163 | 37786 ft | 514 kts | 236° |
| 2026-05-03 22:38 | 62.79454 | -88.72494 | 37785 ft | 514 kts | 236° |
| 2026-05-03 22:38 | 62.75716 | -88.85728 | 37789 ft | 514 kts | 236° |
| 2026-05-03 22:39 | 62.71942 | -88.99018 | 37783 ft | 515 kts | 236° |
| 2026-05-03 22:39 | 62.68157 | -89.12264 | 37785 ft | 514 kts | 236° |
| 2026-05-03 22:40 | 62.64388 | -89.25381 | 37784 ft | 514 kts | 236° |
| 2026-05-03 22:40 | 62.60584 | -89.38540 | 37785 ft | 513 kts | 236° |
| 2026-05-03 22:41 | 62.56770 | -89.51664 | 37782 ft | 514 kts | 235° |
| 2026-05-03 22:41 | 62.52966 | -89.64669 | 37785 ft | 513 kts | 235° |
| 2026-05-03 22:42 | 62.49129 | -89.77721 | 37784 ft | 514 kts | 235° |
| 2026-05-03 22:42 | 62.45272 | -89.90760 | 37786 ft | 513 kts | 235° |
| 2026-05-03 22:43 | 62.41431 | -90.03672 | 37785 ft | 514 kts | 235° |
| 2026-05-03 22:43 | 62.37545 | -90.16662 | 37780 ft | 514 kts | 235° |
| 2026-05-03 22:44 | 62.33649 | -90.29618 | 37784 ft | 513 kts | 234° |
| 2026-05-03 22:44 | 62.29772 | -90.42421 | 37784 ft | 513 kts | 234° |
| 2026-05-03 22:45 | 62.25870 | -90.55252 | 37788 ft | 513 kts | 234° |
| 2026-05-03 22:45 | 62.22009 | -90.67862 | 37783 ft | 513 kts | 234° |
| 2026-05-03 22:46 | 62.18053 | -90.80730 | 37789 ft | 514 kts | 234° |
| 2026-05-03 22:46 | 62.14124 | -90.93420 | 37787 ft | 513 kts | 234° |
| 2026-05-03 22:47 | 62.10168 | -91.06138 | 37789 ft | 513 kts | 234° |
| 2026-05-03 22:47 | 62.06204 | -91.18806 | 37788 ft | 514 kts | 234° |
| 2026-05-03 22:48 | 62.02235 | -91.31423 | 37791 ft | 514 kts | 234° |
| 2026-05-03 22:48 | 61.98240 | -91.44052 | 37793 ft | 513 kts | 234° |
| 2026-05-03 22:49 | 61.94254 | -91.56582 | 37798 ft | 514 kts | 234° |
| 2026-05-03 22:49 | 61.90236 | -91.69146 | 37797 ft | 514 kts | 233° |
| 2026-05-03 22:50 | 61.86206 | -91.81676 | 37795 ft | 514 kts | 233° |
| 2026-05-03 22:50 | 61.82159 | -91.94194 | 37803 ft | 513 kts | 233° |
| 2026-05-03 22:51 | 61.78116 | -92.06630 | 37804 ft | 513 kts | 233° |
| 2026-05-03 22:51 | 61.74082 | -92.18973 | 37800 ft | 513 kts | 233° |
| 2026-05-03 22:52 | 61.70058 | -92.31214 | 37807 ft | 513 kts | 233° |
| 2026-05-03 22:52 | 61.65981 | -92.43557 | 37808 ft | 513 kts | 233° |
| 2026-05-03 22:53 | 61.61890 | -92.55877 | 37806 ft | 513 kts | 233° |
| 2026-05-03 22:53 | 61.57796 | -92.68133 | 37805 ft | 512 kts | 233° |
| 2026-05-03 22:54 | 61.53695 | -92.80351 | 37807 ft | 513 kts | 233° |
| 2026-05-03 22:54 | 61.49567 | -92.92582 | 37813 ft | 512 kts | 233° |
| 2026-05-03 22:55 | 61.45450 | -93.04718 | 37813 ft | 512 kts | 233° |
| 2026-05-03 22:55 | 61.41314 | -93.16844 | 37806 ft | 512 kts | 233° |
| 2026-05-03 22:56 | 61.37169 | -93.28936 | 37810 ft | 512 kts | 233° |
| 2026-05-03 22:56 | 61.33012 | -93.40997 | 37810 ft | 512 kts | 233° |
| 2026-05-03 22:57 | 61.28836 | -93.53047 | 37811 ft | 512 kts | 233° |
| 2026-05-03 22:57 | 61.24682 | -93.64977 | 37806 ft | 512 kts | 233° |
| 2026-05-03 22:58 | 61.20485 | -93.76966 | 37807 ft | 512 kts | 233° |
| 2026-05-03 22:58 | 61.16275 | -93.88927 | 37806 ft | 513 kts | 233° |
| 2026-05-03 22:59 | 61.12061 | -94.00841 | 37808 ft | 513 kts | 233° |
| 2026-05-03 22:59 | 61.08008 | -94.12937 | 37814 ft | 512 kts | 236° |
| 2026-05-03 23:00 | 61.04021 | -94.25196 | 37822 ft | 513 kts | 236° |
| 2026-05-03 23:00 | 61.00078 | -94.37472 | 37817 ft | 513 kts | 236° |
| 2026-05-03 23:01 | 60.96128 | -94.49595 | 37825 ft | 513 kts | 236° |
| 2026-05-03 23:01 | 60.92142 | -94.61817 | 37817 ft | 511 kts | 236° |
| 2026-05-03 23:02 | 60.88187 | -94.73860 | 37818 ft | 511 kts | 235° |
| 2026-05-03 23:02 | 60.84191 | -94.85969 | 37832 ft | 512 kts | 236° |
| 2026-05-03 23:03 | 60.80184 | -94.98052 | 37836 ft | 512 kts | 235° |
| 2026-05-03 23:03 | 60.76163 | -95.10108 | 37837 ft | 513 kts | 235° |
| 2026-05-03 23:04 | 60.72129 | -95.22143 | 37843 ft | 513 kts | 235° |
| 2026-05-03 23:04 | 60.68102 | -95.34096 | 37848 ft | 513 kts | 235° |
| 2026-05-03 23:05 | 60.64037 | -95.46102 | 37849 ft | 513 kts | 235° |
| 2026-05-03 23:05 | 60.59987 | -95.57998 | 37852 ft | 513 kts | 235° |
| 2026-05-03 23:06 | 60.55911 | -95.69910 | 37858 ft | 514 kts | 235° |
| 2026-05-03 23:06 | 60.51794 | -95.81880 | 37863 ft | 514 kts | 235° |
| 2026-05-03 23:07 | 60.47699 | -95.93727 | 37867 ft | 514 kts | 235° |
| 2026-05-03 23:07 | 60.43591 | -96.05550 | 37858 ft | 515 kts | 235° |
| 2026-05-03 23:08 | 60.39452 | -96.17404 | 37861 ft | 514 kts | 235° |
| 2026-05-03 23:08 | 60.35309 | -96.29207 | 37867 ft | 514 kts | 235° |
| 2026-05-03 23:09 | 60.31174 | -96.40929 | 37869 ft | 515 kts | 235° |
| 2026-05-03 23:09 | 60.27002 | -96.52696 | 37871 ft | 515 kts | 234° |
| 2026-05-03 23:10 | 60.22818 | -96.64437 | 37874 ft | 516 kts | 234° |
| 2026-05-03 23:10 | 60.18646 | -96.76087 | 37884 ft | 516 kts | 234° |
| 2026-05-03 23:11 | 60.14434 | -96.87787 | 37881 ft | 516 kts | 234° |
| 2026-05-03 23:11 | 60.10208 | -96.99472 | 37880 ft | 516 kts | 234° |
| 2026-05-03 23:12 | 60.05975 | -97.11114 | 37880 ft | 516 kts | 234° |
| 2026-05-03 23:12 | 60.01765 | -97.22638 | 37885 ft | 516 kts | 234° |
| 2026-05-03 23:13 | 59.97514 | -97.34216 | 37886 ft | 516 kts | 234° |
| 2026-05-03 23:13 | 59.93276 | -97.45701 | 37884 ft | 516 kts | 234° |
| 2026-05-03 23:14 | 59.89016 | -97.57192 | 37883 ft | 516 kts | 234° |
| 2026-05-03 23:14 | 59.84734 | -97.68683 | 37891 ft | 516 kts | 234° |
| 2026-05-03 23:15 | 59.82322 | -97.75130 | 37888 ft | 516 kts | 234° |
| 2026-05-03 23:15 | 59.77348 | -97.88375 | 37887 ft | 517 kts | 234° |
| 2026-05-03 23:16 | 59.73936 | -97.97412 | 37887 ft | 517 kts | 234° |
| 2026-05-03 23:16 | 59.69606 | -98.08837 | 37886 ft | 517 kts | 234° |
| 2026-05-03 23:17 | 59.65283 | -98.20185 | 37885 ft | 518 kts | 234° |
| 2026-05-03 23:17 | 59.60936 | -98.31541 | 37884 ft | 518 kts | 234° |
| 2026-05-03 23:18 | 59.56562 | -98.42914 | 37885 ft | 519 kts | 234° |
| 2026-05-03 23:18 | 59.52208 | -98.54179 | 37878 ft | 519 kts | 233° |
| 2026-05-03 23:19 | 59.47824 | -98.65470 | 37884 ft | 520 kts | 233° |
| 2026-05-03 23:19 | 59.43402 | -98.76798 | 37886 ft | 520 kts | 233° |
| 2026-05-03 23:20 | 59.38973 | -98.88095 | 37877 ft | 520 kts | 233° |
| 2026-05-03 23:20 | 59.34563 | -98.99285 | 37878 ft | 521 kts | 233° |
| 2026-05-03 23:21 | 59.30113 | -99.10525 | 37878 ft | 521 kts | 233° |
| 2026-05-03 23:21 | 59.25663 | -99.21715 | 37873 ft | 521 kts | 233° |
| 2026-05-03 23:22 | 59.18971 | -99.38435 | 37872 ft | 520 kts | 233° |
| 2026-05-03 23:22 | 59.14526 | -99.49478 | 37864 ft | 521 kts | 233° |
| 2026-05-03 23:23 | 59.10034 | -99.60585 | 37865 ft | 521 kts | 233° |
| 2026-05-03 23:23 | 59.05536 | -99.71653 | 37857 ft | 522 kts | 233° |
| 2026-05-03 23:24 | 59.01021 | -99.82712 | 37856 ft | 522 kts | 233° |
| 2026-05-03 23:24 | 58.96527 | -99.93668 | 37851 ft | 522 kts | 233° |
| 2026-05-03 23:25 | 58.91990 | -100.04676 | 37856 ft | 522 kts | 233° |
| 2026-05-03 23:25 | 58.87446 | -100.15652 | 37849 ft | 522 kts | 233° |
| 2026-05-03 23:26 | 58.82885 | -100.26614 | 37844 ft | 522 kts | 233° |
| 2026-05-03 23:26 | 58.78350 | -100.37465 | 37835 ft | 522 kts | 233° |
| 2026-05-03 23:27 | 58.73775 | -100.48361 | 37831 ft | 523 kts | 233° |
| 2026-05-03 23:27 | 58.69186 | -100.59240 | 37830 ft | 523 kts | 233° |
| 2026-05-03 23:28 | 58.64582 | -100.70105 | 37831 ft | 523 kts | 232° |
| 2026-05-03 23:28 | 58.60005 | -100.80854 | 37818 ft | 523 kts | 232° |
| 2026-05-03 23:29 | 58.57695 | -100.86261 | 37950 ft | 522 kts | 232° |
| 2026-05-03 23:29 | 58.55379 | -100.91673 | 37828 ft | 528 kts | 232° |
| 2026-05-03 23:29 | 58.50681 | -101.02604 | 37831 ft | 531 kts | 232° |
| 2026-05-03 23:30 | 58.46000 | -101.13447 | 37826 ft | 530 kts | 232° |
| 2026-05-03 23:30 | 58.41292 | -101.24304 | 37823 ft | 530 kts | 232° |
| 2026-05-03 23:31 | 58.36576 | -101.35129 | 37816 ft | 529 kts | 232° |
| 2026-05-03 23:31 | 58.31885 | -101.45846 | 37815 ft | 529 kts | 232° |
| 2026-05-03 23:32 | 58.27148 | -101.56618 | 37810 ft | 529 kts | 232° |
| 2026-05-03 23:32 | 58.22450 | -101.67253 | 37802 ft | 528 kts | 232° |
| 2026-05-03 23:33 | 58.17715 | -101.77927 | 37797 ft | 528 kts | 232° |
| 2026-05-03 23:33 | 58.12967 | -101.88577 | 37797 ft | 528 kts | 232° |
| 2026-05-03 23:34 | 58.08246 | -101.99120 | 37788 ft | 528 kts | 232° |
| 2026-05-03 23:34 | 58.03489 | -102.09698 | 37792 ft | 528 kts | 232° |
| 2026-05-03 23:35 | 57.98731 | -102.20228 | 37785 ft | 527 kts | 232° |
| 2026-05-03 23:35 | 57.93960 | -102.30740 | 37778 ft | 528 kts | 232° |
| 2026-05-03 23:36 | 57.89175 | -102.41236 | 37785 ft | 527 kts | 232° |
| 2026-05-03 23:36 | 57.84386 | -102.51696 | 37777 ft | 527 kts | 232° |
| 2026-05-03 23:37 | 57.79619 | -102.62059 | 37775 ft | 528 kts | 232° |
| 2026-05-03 23:37 | 57.74811 | -102.72468 | 37771 ft | 528 kts | 232° |
| 2026-05-03 23:38 | 57.69989 | -102.82859 | 37773 ft | 528 kts | 232° |
| 2026-05-03 23:38 | 57.65169 | -102.93201 | 37775 ft | 528 kts | 232° |
| 2026-05-03 23:39 | 57.60360 | -103.03473 | 37771 ft | 528 kts | 232° |
| 2026-05-03 23:39 | 57.55509 | -103.13790 | 37774 ft | 529 kts | 232° |
| 2026-05-03 23:40 | 57.50647 | -103.24084 | 37773 ft | 529 kts | 232° |
| 2026-05-03 23:40 | 57.45771 | -103.34362 | 37784 ft | 529 kts | 231° |
| 2026-05-03 23:41 | 57.40891 | -103.44605 | 37779 ft | 529 kts | 231° |
| 2026-05-03 23:41 | 57.36039 | -103.54745 | 37790 ft | 528 kts | 231° |
| 2026-05-03 23:42 | 57.31141 | -103.64937 | 37787 ft | 529 kts | 231° |
| 2026-05-03 23:42 | 57.26238 | -103.75096 | 37781 ft | 529 kts | 231° |
| 2026-05-03 23:43 | 57.21326 | -103.85226 | 37788 ft | 529 kts | 231° |
| 2026-05-03 23:43 | 57.16440 | -103.95264 | 37788 ft | 529 kts | 231° |
| 2026-05-03 23:44 | 57.11506 | -104.05354 | 37793 ft | 530 kts | 231° |
| 2026-05-03 23:44 | 57.06558 | -104.15430 | 37796 ft | 530 kts | 231° |
| 2026-05-03 23:45 | 57.01594 | -104.25495 | 37791 ft | 531 kts | 231° |
| 2026-05-03 23:45 | 56.96645 | -104.35486 | 37792 ft | 531 kts | 231° |
| 2026-05-03 23:46 | 56.91662 | -104.45505 | 37796 ft | 531 kts | 231° |
| 2026-05-03 23:46 | 56.86704 | -104.55430 | 37796 ft | 531 kts | 231° |
| 2026-05-03 23:47 | 56.81697 | -104.65408 | 37803 ft | 532 kts | 231° |
| 2026-05-03 23:47 | 56.76690 | -104.75347 | 37800 ft | 532 kts | 231° |
| 2026-05-03 23:48 | 56.71664 | -104.85281 | 37807 ft | 532 kts | 231° |
| 2026-05-03 23:48 | 56.66629 | -104.95190 | 37822 ft | 532 kts | 231° |
| 2026-05-03 23:49 | 56.61620 | -105.05005 | 37816 ft | 531 kts | 231° |
| 2026-05-03 23:49 | 56.56576 | -105.14851 | 37809 ft | 532 kts | 231° |
| 2026-05-03 23:50 | 56.52376 | -105.23014 | 37820 ft | 532 kts | 231° |
| 2026-05-03 23:50 | 56.46489 | -105.34412 | 37824 ft | 532 kts | 231° |
| 2026-05-03 23:51 | 56.41429 | -105.44165 | 37821 ft | 532 kts | 231° |
| 2026-05-03 23:51 | 56.36356 | -105.53898 | 37825 ft | 531 kts | 230° |
| 2026-05-03 23:52 | 56.31291 | -105.63580 | 37823 ft | 531 kts | 230° |
| 2026-05-03 23:52 | 56.26236 | -105.73201 | 37825 ft | 531 kts | 230° |
| 2026-05-03 23:53 | 56.21158 | -105.82826 | 37826 ft | 530 kts | 230° |
| 2026-05-03 23:53 | 56.16072 | -105.92426 | 37829 ft | 529 kts | 230° |
| 2026-05-03 23:54 | 56.10988 | -106.01985 | 37832 ft | 529 kts | 230° |
| 2026-05-03 23:54 | 56.06370 | -106.12016 | 37833 ft | 525 kts | 236° |
| 2026-05-03 23:55 | 56.01877 | -106.22364 | 37847 ft | 525 kts | 236° |
| 2026-05-03 23:55 | 55.97442 | -106.32658 | 37841 ft | 526 kts | 236° |
| 2026-05-03 23:56 | 55.92946 | -106.42978 | 37835 ft | 525 kts | 236° |
| 2026-05-03 23:56 | 55.88453 | -106.53287 | 37839 ft | 525 kts | 236° |
| 2026-05-03 23:57 | 55.83955 | -106.63543 | 37846 ft | 525 kts | 236° |
| 2026-05-03 23:57 | 55.79455 | -106.73770 | 37843 ft | 525 kts | 236° |
| 2026-05-03 23:58 | 55.74950 | -106.83964 | 37847 ft | 524 kts | 236° |
| 2026-05-03 23:58 | 55.70433 | -106.94142 | 37850 ft | 524 kts | 236° |
| 2026-05-03 23:59 | 55.65942 | -107.04218 | 37858 ft | 524 kts | 236° |
| 2026-05-03 23:59 | 55.61415 | -107.14335 | 37854 ft | 524 kts | 236° |
| 2026-05-04 00:00 | 55.56868 | -107.24453 | 37862 ft | 524 kts | 236° |
| 2026-05-04 00:00 | 55.53080 | -107.32851 | 37858 ft | 524 kts | 236° |
| 2026-05-04 00:01 | 55.48539 | -107.42880 | 37875 ft | 523 kts | 236° |
| 2026-05-04 00:01 | 55.43986 | -107.52894 | 37867 ft | 523 kts | 236° |
| 2026-05-04 00:02 | 55.39445 | -107.62842 | 37878 ft | 523 kts | 236° |
| 2026-05-04 00:02 | 55.34867 | -107.72830 | 37871 ft | 523 kts | 235° |
| 2026-05-04 00:03 | 55.30326 | -107.82696 | 37873 ft | 523 kts | 235° |
| 2026-05-04 00:03 | 55.25728 | -107.92646 | 37877 ft | 523 kts | 235° |
| 2026-05-04 00:04 | 55.21131 | -108.02553 | 37873 ft | 523 kts | 235° |
| 2026-05-04 00:04 | 55.16528 | -108.12433 | 37881 ft | 523 kts | 235° |
| 2026-05-04 00:05 | 55.11916 | -108.22292 | 37885 ft | 523 kts | 235° |
| 2026-05-04 00:05 | 55.07323 | -108.32072 | 37882 ft | 523 kts | 235° |
| 2026-05-04 00:06 | 55.02699 | -108.41877 | 37907 ft | 524 kts | 235° |
| 2026-05-04 00:06 | 54.98058 | -108.51681 | 37900 ft | 524 kts | 235° |
| 2026-05-04 00:07 | 54.93414 | -108.61450 | 37889 ft | 524 kts | 235° |
| 2026-05-04 00:07 | 54.88776 | -108.71169 | 37887 ft | 524 kts | 235° |
| 2026-05-04 00:08 | 54.84109 | -108.80908 | 37878 ft | 524 kts | 235° |
| 2026-05-04 00:08 | 54.79434 | -108.90627 | 37875 ft | 523 kts | 235° |
| 2026-05-04 00:09 | 54.74763 | -109.00300 | 37881 ft | 523 kts | 234° |
| 2026-05-04 00:09 | 54.70118 | -109.09878 | 37874 ft | 522 kts | 234° |
| 2026-05-04 00:10 | 54.65437 | -109.19496 | 37871 ft | 522 kts | 234° |
| 2026-05-04 00:10 | 54.60750 | -109.29086 | 37871 ft | 522 kts | 234° |
| 2026-05-04 00:11 | 54.56048 | -109.38670 | 37871 ft | 522 kts | 234° |
| 2026-05-04 00:11 | 54.51341 | -109.48225 | 37869 ft | 522 kts | 234° |
| 2026-05-04 00:12 | 54.46667 | -109.57680 | 37866 ft | 522 kts | 234° |
| 2026-05-04 00:12 | 54.41953 | -109.67175 | 37863 ft | 521 kts | 234° |
| 2026-05-04 00:13 | 54.37240 | -109.76635 | 37856 ft | 521 kts | 234° |
| 2026-05-04 00:13 | 54.32515 | -109.86080 | 37865 ft | 521 kts | 234° |
| 2026-05-04 00:14 | 54.27785 | -109.95392 | 37867 ft | 524 kts | 229° |
| 2026-05-04 00:14 | 54.22388 | -110.03891 | 37861 ft | 527 kts | 228° |
| 2026-05-04 00:15 | 54.16959 | -110.12356 | 37886 ft | 527 kts | 228° |
| 2026-05-04 00:15 | 54.11550 | -110.20736 | 37883 ft | 527 kts | 228° |
| 2026-05-04 00:16 | 54.06113 | -110.29149 | 37876 ft | 527 kts | 228° |
| 2026-05-04 00:16 | 54.00672 | -110.37521 | 37878 ft | 527 kts | 228° |
| 2026-05-04 00:17 | 53.95261 | -110.45827 | 37883 ft | 527 kts | 228° |
| 2026-05-04 00:17 | 53.89800 | -110.54172 | 37877 ft | 527 kts | 228° |
| 2026-05-04 00:18 | 53.84342 | -110.62486 | 37881 ft | 527 kts | 228° |
| 2026-05-04 00:18 | 53.78865 | -110.70796 | 37868 ft | 527 kts | 228° |
| 2026-05-04 00:19 | 53.73437 | -110.79004 | 37874 ft | 527 kts | 228° |
| 2026-05-04 00:19 | 53.67954 | -110.87264 | 37875 ft | 527 kts | 228° |
| 2026-05-04 00:20 | 53.62475 | -110.95488 | 37885 ft | 528 kts | 228° |
| 2026-05-04 00:20 | 53.59314 | -111.00220 | 37880 ft | 528 kts | 228° |
| 2026-05-04 00:21 | 53.56535 | -111.04370 | 37880 ft | 528 kts | 228° |
| 2026-05-04 00:21 | 53.51067 | -111.12516 | 37885 ft | 528 kts | 228° |
| 2026-05-04 00:22 | 53.45560 | -111.20692 | 37883 ft | 527 kts | 228° |
| 2026-05-04 00:22 | 53.40055 | -111.28834 | 37890 ft | 527 kts | 228° |
| 2026-05-04 00:23 | 53.34543 | -111.36956 | 37899 ft | 527 kts | 228° |
| 2026-05-04 00:23 | 53.29018 | -111.45070 | 37893 ft | 528 kts | 228° |
| 2026-05-04 00:24 | 53.23532 | -111.53097 | 37902 ft | 527 kts | 228° |
| 2026-05-04 00:24 | 53.18006 | -111.61154 | 37906 ft | 527 kts | 228° |
| 2026-05-04 00:25 | 53.12472 | -111.69195 | 37914 ft | 527 kts | 228° |
| 2026-05-04 00:25 | 53.06937 | -111.77208 | 37912 ft | 527 kts | 228° |
| 2026-05-04 00:26 | 53.01402 | -111.85192 | 37917 ft | 526 kts | 228° |
| 2026-05-04 00:26 | 52.95900 | -111.93103 | 37918 ft | 526 kts | 228° |
| 2026-05-04 00:27 | 52.90365 | -112.01032 | 37936 ft | 526 kts | 228° |
| 2026-05-04 00:27 | 52.84825 | -112.08939 | 37922 ft | 525 kts | 228° |
| 2026-05-04 00:28 | 52.79292 | -112.16811 | 37918 ft | 525 kts | 228° |
| 2026-05-04 00:28 | 52.73805 | -112.24576 | 37850 ft | 510 kts | 229° |
| 2026-05-04 00:29 | 52.71117 | -112.28375 | 37429 ft | 505 kts | 229° |
| 2026-05-04 00:29 | 52.68455 | -112.32148 | 36800 ft | 504 kts | 230° |
| 2026-05-04 00:29 | 52.65801 | -112.35895 | 36218 ft | 504 kts | 230° |
| 2026-05-04 00:29 | 52.63170 | -112.39587 | 35623 ft | 503 kts | 230° |
| 2026-05-04 00:30 | 52.60502 | -112.43331 | 35014 ft | 503 kts | 231° |
| 2026-05-04 00:30 | 52.57838 | -112.47070 | 34413 ft | 502 kts | 231° |
| 2026-05-04 00:30 | 52.55152 | -112.50834 | 33787 ft | 502 kts | 231° |
| 2026-05-04 00:30 | 52.52533 | -112.54494 | 33187 ft | 499 kts | 231° |
| 2026-05-04 00:31 | 52.49860 | -112.58219 | 32597 ft | 497 kts | 231° |
| 2026-05-04 00:31 | 52.47235 | -112.61876 | 32025 ft | 494 kts | 231° |
| 2026-05-04 00:31 | 52.44625 | -112.65509 | 31454 ft | 491 kts | 231° |
| 2026-05-04 00:31 | 52.42023 | -112.69122 | 30888 ft | 488 kts | 231° |
| 2026-05-04 00:32 | 52.39473 | -112.72657 | 30338 ft | 485 kts | 230° |
| 2026-05-04 00:32 | 52.36898 | -112.76221 | 29744 ft | 483 kts | 230° |
| 2026-05-04 00:32 | 52.34353 | -112.79735 | 29187 ft | 478 kts | 230° |
| 2026-05-04 00:32 | 52.31812 | -112.83241 | 28646 ft | 474 kts | 230° |
| 2026-05-04 00:33 | 52.29303 | -112.86699 | 28102 ft | 470 kts | 230° |
| 2026-05-04 00:33 | 52.24294 | -112.93450 | 27049 ft | 468 kts | 224° |
| 2026-05-04 00:33 | 52.21484 | -112.96172 | 26535 ft | 476 kts | 215° |
| 2026-05-04 00:34 | 52.18512 | -112.98515 | 26004 ft | 473 kts | 215° |
| 2026-05-04 00:34 | 52.15544 | -113.00862 | 25463 ft | 470 kts | 215° |
| 2026-05-04 00:34 | 52.12604 | -113.03175 | 24931 ft | 467 kts | 215° |
| 2026-05-04 00:34 | 52.09682 | -113.05467 | 24414 ft | 464 kts | 215° |
| 2026-05-04 00:35 | 52.06779 | -113.07746 | 23902 ft | 461 kts | 215° |
| 2026-05-04 00:35 | 52.03895 | -113.10008 | 23374 ft | 458 kts | 215° |
| 2026-05-04 00:35 | 52.01034 | -113.12247 | 22837 ft | 454 kts | 215° |
| 2026-05-04 00:35 | 51.98208 | -113.14452 | 22335 ft | 449 kts | 215° |
| 2026-05-04 00:36 | 51.95411 | -113.16634 | 21840 ft | 444 kts | 215° |
| 2026-05-04 00:36 | 51.92647 | -113.18790 | 21361 ft | 439 kts | 215° |
| 2026-05-04 00:36 | 51.89911 | -113.20919 | 20881 ft | 434 kts | 214° |
| 2026-05-04 00:36 | 51.87207 | -113.23019 | 20415 ft | 429 kts | 214° |
| 2026-05-04 00:37 | 51.84525 | -113.25101 | 19946 ft | 425 kts | 214° |
| 2026-05-04 00:37 | 51.81875 | -113.27157 | 19486 ft | 420 kts | 214° |
| 2026-05-04 00:37 | 51.79247 | -113.29191 | 19036 ft | 416 kts | 214° |
| 2026-05-04 00:37 | 51.76655 | -113.31190 | 18567 ft | 403 kts | 214° |
| 2026-05-04 00:38 | 51.74208 | -113.33066 | 18130 ft | 388 kts | 215° |
| 2026-05-04 00:38 | 51.71785 | -113.34946 | 17695 ft | 383 kts | 215° |
| 2026-05-04 00:38 | 51.69398 | -113.36797 | 17290 ft | 379 kts | 215° |
| 2026-05-04 00:38 | 51.67030 | -113.38617 | 16882 ft | 374 kts | 214° |
| 2026-05-04 00:39 | 51.64693 | -113.40406 | 16483 ft | 370 kts | 214° |
| 2026-05-04 00:39 | 51.62377 | -113.42184 | 16090 ft | 366 kts | 214° |
| 2026-05-04 00:39 | 51.60093 | -113.43939 | 15697 ft | 361 kts | 214° |
| 2026-05-04 00:39 | 51.57830 | -113.45672 | 15306 ft | 357 kts | 214° |
| 2026-05-04 00:40 | 51.55590 | -113.47385 | 14916 ft | 353 kts | 214° |
| 2026-05-04 00:40 | 51.53408 | -113.49053 | 14544 ft | 349 kts | 214° |
| 2026-05-04 00:40 | 51.51227 | -113.50718 | 14180 ft | 345 kts | 213° |
| 2026-05-04 00:40 | 51.49072 | -113.52362 | 13806 ft | 341 kts | 213° |
| 2026-05-04 00:41 | 51.46941 | -113.53985 | 13422 ft | 337 kts | 213° |
| 2026-05-04 00:41 | 51.44816 | -113.55607 | 13054 ft | 338 kts | 213° |
| 2026-05-04 00:41 | 51.42685 | -113.57230 | 12693 ft | 340 kts | 212° |
| 2026-05-04 00:41 | 51.41267 | -113.58306 | 12458 ft | 341 kts | 212° |
| 2026-05-04 00:42 | 51.38418 | -113.60460 | 11964 ft | 335 kts | 211° |
| 2026-05-04 00:42 | 51.36331 | -113.62047 | 11612 ft | 338 kts | 211° |
| 2026-05-04 00:42 | 51.35615 | -113.62592 | 11500 ft | 338 kts | 211° |
| 2026-05-04 00:42 | 51.33981 | -113.63827 | 11233 ft | 334 kts | 210° |
| 2026-05-04 00:43 | 51.31907 | -113.65388 | 10961 ft | 326 kts | 210° |
| 2026-05-04 00:43 | 51.29884 | -113.66915 | 10821 ft | 314 kts | 210° |
| 2026-05-04 00:43 | 51.27946 | -113.68377 | 10688 ft | 303 kts | 210° |
| 2026-05-04 00:43 | 51.26064 | -113.69798 | 10548 ft | 292 kts | 210° |
| 2026-05-04 00:44 | 51.24861 | -113.70704 | 10454 ft | 287 kts | 210° |
| 2026-05-04 00:44 | 51.22422 | -113.72550 | 10119 ft | 293 kts | 210° |
| 2026-05-04 00:44 | 51.21196 | -113.73473 | 9944 ft | 294 kts | 210° |
| 2026-05-04 00:44 | 51.19351 | -113.74853 | 9669 ft | 291 kts | 209° |
| 2026-05-04 00:45 | 51.17522 | -113.76225 | 9396 ft | 291 kts | 210° |
| 2026-05-04 00:45 | 51.15683 | -113.77608 | 9126 ft | 291 kts | 210° |
| 2026-05-04 00:45 | 51.13883 | -113.78956 | 8851 ft | 288 kts | 209° |
| 2026-05-04 00:45 | 51.12081 | -113.80303 | 8577 ft | 283 kts | 209° |
| 2026-05-04 00:46 | 51.10323 | -113.81619 | 8349 ft | 276 kts | 210° |
| 2026-05-04 00:46 | 51.08618 | -113.82892 | 8260 ft | 263 kts | 210° |
| 2026-05-04 00:46 | 51.07020 | -113.84082 | 8191 ft | 242 kts | 210° |
| 2026-05-04 00:46 | 51.05482 | -113.84863 | 7947 ft | 228 kts | 187° |
| 2026-05-04 00:47 | 51.03972 | -113.84780 | 7681 ft | 208 kts | 181° |
| 2026-05-04 00:47 | 51.02550 | -113.84814 | 7440 ft | 204 kts | 184° |
| 2026-05-04 00:47 | 51.01152 | -113.85205 | 7173 ft | 201 kts | 204° |
| 2026-05-04 00:47 | 50.99949 | -113.86245 | 6965 ft | 196 kts | 222° |
| 2026-05-04 00:48 | 50.99024 | -113.87792 | 6759 ft | 191 kts | 241° |
| 2026-05-04 00:48 | 50.98436 | -113.89633 | 6559 ft | 183 kts | 258° |
| 2026-05-04 00:48 | 50.98211 | -113.91562 | 6359 ft | 175 kts | 275° |
| 2026-05-04 00:48 | 50.98319 | -113.93436 | 6160 ft | 167 kts | 290° |
| 2026-05-04 00:49 | 50.98713 | -113.95132 | 5964 ft | 162 kts | 304° |
| 2026-05-04 00:49 | 50.99334 | -113.96579 | 5794 ft | 157 kts | 316° |
| 2026-05-04 00:49 | 51.00138 | -113.97731 | 5638 ft | 158 kts | 327° |
| 2026-05-04 00:49 | 51.01092 | -113.98560 | 5436 ft | 155 kts | 340° |
| 2026-05-04 00:50 | 51.02122 | -113.98997 | 5279 ft | 150 kts | 352° |
| 2026-05-04 00:50 | 51.03161 | -113.99059 | 5104 ft | 150 kts | 0° |
| 2026-05-04 00:50 | 51.04211 | -113.99044 | 4904 ft | 154 kts | 0° |
| 2026-05-04 00:50 | 51.05285 | -113.99041 | 4693 ft | 152 kts | 359° |
| 2026-05-04 00:51 | 51.06316 | -113.99038 | 4478 ft | 148 kts | 359° |
| 2026-05-04 00:51 | 51.07354 | -113.99014 | 4292 ft | 151 kts | 359° |
| 2026-05-04 00:51 | 51.08411 | -113.99046 | 4134 ft | 150 kts | 1° |
| 2026-05-04 00:51 | 51.09456 | -113.99061 | 3909 ft | 149 kts | 4° |
| 2026-05-04 00:52 | 51.10498 | -113.99042 | 3721 ft | 148 kts | 2° |
| 2026-05-04 00:52 | 51.11516 | -113.99029 | 3584 ft | 141 kts | 1° |
| 2026-05-04 00:52 | 51.12351 | -113.99028 | 3564 ft | 97 kts | 358° |
| 2026-05-04 00:52 | 51.12891 | -113.99028 | 3564 ft | 61 kts | 0° |
| 2026-05-04 00:53 | 51.13236 | -113.99035 | 3562 ft | 43 kts | 360° |
| 2026-05-04 00:53 | 51.13503 | -113.99114 | 3565 ft | 37 kts | 334° |
| 2026-05-04 00:53 | 51.13612 | -113.99279 | 3558 ft | 13 kts | 306° |
| 2026-05-04 00:53 | 51.13642 | -113.99386 | 3555 ft | 5 kts | 256° |
| 2026-05-04 00:54 | 51.13619 | -113.99422 | 3558 ft | 7 kts | 211° |
| 2026-05-04 00:54 | 51.13545 | -113.99442 | 3558 ft | 11 kts | 186° |
| 2026-05-04 00:54 | 51.13441 | -113.99445 | 3556 ft | 17 kts | 180° |